Pike, New Hampshire
Current Conditions -  °F | °C
As of 2:35 PM on Thursday 27 Nov 2014 (Local Time) from K1P1 Reporting Station
Overcast Overcast  
Wind Chill: 21°   Ceiling: 2800
Heat Index: 30°   Visibility: 10mi
Dew Point: 25°   Wind: 12mph
Humidity: 83%   Direction: 280°W
Pressure: 29.95"   Gusts: 18mph
Location:  44.03°N, 72.01°W
Report Text: K1P1 271935Z AUTO 28010G16KT 10SM OVC028 M01/M04 A2995 RMK AO2 T10111037
Loading
Personal Weather Stations






























Interactive Weather Map New forecast layout! Learn more

10-Day Weather Forecast

Advertisements
Track Severe Weather on mobile